ASX304 LEPA-LSZH
Flight info
| Callsign | ASX304 |
|---|---|
| Flight time | 1h 33m |
| Altitude | 38000 |
| Route | MEROS DCT LAPIT DCT CHELY DCT LUMAS DCT MAXIR DCT LUSOL DCT BODRU DCT OKTET DCT IRMAR DCT KINES DCT VANAS DCT MOBLO DCT LAMUR DCT GUDAX Z57 DOPIL |
| Aircraft | A20N/M-SDE2E3FGHIJ1RWXY/LB1 |
Departure
| Time | 2026-04-30 20:02 |
|---|---|
| Airport | Palma de Mallorca Airport (LEPA) |
Arrival
| Time | 2026-04-30 21:35 |
|---|---|
| Airport | Zürich Airport (LSZH) |
| Time | Latitude | Longitude | Altitude | Speed | Heading |
|---|---|---|---|---|---|
| 2026-04-30 19:23 | 39.54949 | 2.73763 | 33 ft | 0 kts | 240° |
| 2026-04-30 19:46 | 39.54952 | 2.73770 | 33 ft | 2 kts | 239° |
| 2026-04-30 19:46 | 39.54960 | 2.73788 | 32 ft | 2 kts | 237° |
| 2026-04-30 19:46 | 39.54970 | 2.73805 | 33 ft | 2 kts | 233° |
| 2026-04-30 19:46 | 39.54980 | 2.73822 | 32 ft | 2 kts | 227° |
| 2026-04-30 19:47 | 39.54992 | 2.73837 | 33 ft | 2 kts | 219° |
| 2026-04-30 19:47 | 39.55001 | 2.73845 | 32 ft | 2 kts | 210° |
| 2026-04-30 19:47 | 39.55021 | 2.73854 | 30 ft | 2 kts | 180° |
| 2026-04-30 19:47 | 39.55037 | 2.73851 | 30 ft | 2 kts | 156° |
| 2026-04-30 19:48 | 39.55041 | 2.73848 | 31 ft | 0 kts | 153° |
| 2026-04-30 19:51 | 39.55034 | 2.73853 | 30 ft | 3 kts | 153° |
| 2026-04-30 19:51 | 39.55010 | 2.73871 | 32 ft | 5 kts | 148° |
| 2026-04-30 19:51 | 39.54970 | 2.73902 | 33 ft | 8 kts | 149° |
| 2026-04-30 19:52 | 39.54910 | 2.73950 | 33 ft | 12 kts | 145° |
| 2026-04-30 19:52 | 39.54830 | 2.73995 | 33 ft | 13 kts | 187° |
| 2026-04-30 19:52 | 39.54779 | 2.73936 | 33 ft | 0 kts | 227° |
| 2026-04-30 19:52 | 39.54765 | 2.73924 | 33 ft | 6 kts | 200° |
| 2026-04-30 19:53 | 39.54708 | 2.73933 | 33 ft | 10 kts | 191° |
| 2026-04-30 19:53 | 39.54662 | 2.73860 | 34 ft | 12 kts | 239° |
| 2026-04-30 19:53 | 39.54614 | 2.73755 | 34 ft | 15 kts | 239° |
| 2026-04-30 19:53 | 39.54555 | 2.73630 | 35 ft | 18 kts | 237° |
| 2026-04-30 19:54 | 39.54488 | 2.73485 | 36 ft | 20 kts | 238° |
| 2026-04-30 19:54 | 39.54412 | 2.73327 | 35 ft | 22 kts | 237° |
| 2026-04-30 19:54 | 39.54376 | 2.73251 | 38 ft | 1 kts | 238° |
| 2026-04-30 19:54 | 39.54361 | 2.73221 | 38 ft | 8 kts | 238° |
| 2026-04-30 19:55 | 39.54313 | 2.73167 | 38 ft | 10 kts | 175° |
| 2026-04-30 19:55 | 39.54292 | 2.73202 | 38 ft | 0 kts | 105° |
| 2026-04-30 19:59 | 39.54289 | 2.73215 | 35 ft | 3 kts | 105° |
| 2026-04-30 19:59 | 39.54276 | 2.73343 | 38 ft | 11 kts | 94° |
| 2026-04-30 20:00 | 39.54271 | 2.73461 | 36 ft | 15 kts | 89° |
| 2026-04-30 20:00 | 39.54286 | 2.73518 | 35 ft | 1 kts | 60° |
| 2026-04-30 20:00 | 39.54293 | 2.73531 | 35 ft | 1 kts | 60° |
| 2026-04-30 20:00 | 39.54293 | 2.73533 | 35 ft | 0 kts | 59° |
| 2026-04-30 20:01 | 39.54294 | 2.73534 | 35 ft | 0 kts | 59° |
| 2026-04-30 20:01 | 39.54370 | 2.73695 | 34 ft | 55 kts | 58° |
| 2026-04-30 20:01 | 39.54678 | 2.74350 | 34 ft | 114 kts | 58° |
| 2026-04-30 20:02 | 39.55699 | 2.76531 | 681 ft | 148 kts | 58° |
| 2026-04-30 20:02 | 39.56272 | 2.77725 | 1069 ft | 162 kts | 58° |
| 2026-04-30 20:03 | 39.57438 | 2.80279 | 2179 ft | 170 kts | 61° |
| 2026-04-30 20:03 | 39.58049 | 2.81657 | 2558 ft | 185 kts | 60° |
| 2026-04-30 20:03 | 39.58739 | 2.83175 | 2890 ft | 208 kts | 59° |
| 2026-04-30 20:03 | 39.59533 | 2.84832 | 3498 ft | 223 kts | 57° |
| 2026-04-30 20:04 | 39.60369 | 2.86521 | 4487 ft | 220 kts | 55° |
| 2026-04-30 20:04 | 39.61217 | 2.88214 | 5367 ft | 228 kts | 55° |
| 2026-04-30 20:04 | 39.62087 | 2.89975 | 6251 ft | 234 kts | 56° |
| 2026-04-30 20:05 | 39.64185 | 2.93560 | 7440 ft | 272 kts | 50° |
| 2026-04-30 20:05 | 39.65336 | 2.95621 | 8036 ft | 290 kts | 56° |
| 2026-04-30 20:05 | 39.67375 | 3.00243 | 9771 ft | 304 kts | 62° |
| 2026-04-30 20:06 | 39.68361 | 3.02745 | 10539 ft | 315 kts | 63° |
| 2026-04-30 20:06 | 39.69369 | 3.05343 | 10895 ft | 338 kts | 63° |
| 2026-04-30 20:06 | 39.70100 | 3.07233 | 11059 ft | 356 kts | 63° |
| 2026-04-30 20:06 | 39.71604 | 3.11107 | 12002 ft | 365 kts | 63° |
| 2026-04-30 20:07 | 39.72757 | 3.14069 | 12865 ft | 369 kts | 62° |
| 2026-04-30 20:07 | 39.73923 | 3.17057 | 13702 ft | 373 kts | 62° |
| 2026-04-30 20:07 | 39.75912 | 3.22144 | 14978 ft | 380 kts | 62° |
| 2026-04-30 20:08 | 39.77138 | 3.25169 | 15533 ft | 385 kts | 58° |
| 2026-04-30 20:08 | 39.78670 | 3.28003 | 15635 ft | 383 kts | 49° |
| 2026-04-30 20:08 | 39.80429 | 3.30610 | 15743 ft | 384 kts | 47° |
| 2026-04-30 20:08 | 39.82190 | 3.33227 | 15853 ft | 384 kts | 47° |
| 2026-04-30 20:09 | 39.83946 | 3.35853 | 15960 ft | 385 kts | 47° |
| 2026-04-30 20:09 | 39.85703 | 3.38492 | 16105 ft | 388 kts | 47° |
| 2026-04-30 20:09 | 39.89248 | 3.43825 | 17560 ft | 392 kts | 47° |
| 2026-04-30 20:10 | 39.92861 | 3.49268 | 18881 ft | 401 kts | 47° |
| 2026-04-30 20:10 | 39.94690 | 3.52028 | 19492 ft | 404 kts | 47° |
| 2026-04-30 20:10 | 39.96542 | 3.54823 | 20102 ft | 408 kts | 47° |
| 2026-04-30 20:11 | 40.00293 | 3.60493 | 21258 ft | 417 kts | 47° |
| 2026-04-30 20:11 | 40.02190 | 3.63366 | 21874 ft | 420 kts | 47° |
| 2026-04-30 20:11 | 40.04108 | 3.66271 | 22474 ft | 424 kts | 47° |
| 2026-04-30 20:12 | 40.07942 | 3.72089 | 23631 ft | 431 kts | 47° |
| 2026-04-30 20:12 | 40.09874 | 3.75025 | 24095 ft | 435 kts | 47° |
| 2026-04-30 20:12 | 40.11857 | 3.78041 | 24572 ft | 438 kts | 47° |
| 2026-04-30 20:13 | 40.13845 | 3.81068 | 25020 ft | 442 kts | 47° |
| 2026-04-30 20:13 | 40.15858 | 3.84137 | 25459 ft | 445 kts | 47° |
| 2026-04-30 20:13 | 40.17881 | 3.87223 | 25901 ft | 449 kts | 47° |
| 2026-04-30 20:13 | 40.19924 | 3.90344 | 26342 ft | 453 kts | 47° |
| 2026-04-30 20:14 | 40.21979 | 3.93485 | 26752 ft | 456 kts | 47° |
| 2026-04-30 20:14 | 40.24050 | 3.96655 | 27175 ft | 459 kts | 47° |
| 2026-04-30 20:14 | 40.26137 | 3.99850 | 27583 ft | 462 kts | 47° |
| 2026-04-30 20:14 | 40.28230 | 4.03061 | 27974 ft | 466 kts | 47° |
| 2026-04-30 20:15 | 40.30340 | 4.06299 | 28357 ft | 469 kts | 47° |
| 2026-04-30 20:15 | 40.32463 | 4.09562 | 28730 ft | 472 kts | 47° |
| 2026-04-30 20:15 | 40.34590 | 4.12834 | 29088 ft | 475 kts | 47° |
| 2026-04-30 20:15 | 40.36737 | 4.16141 | 29417 ft | 478 kts | 47° |
| 2026-04-30 20:16 | 40.38893 | 4.19464 | 29777 ft | 480 kts | 47° |
| 2026-04-30 20:16 | 40.41043 | 4.22784 | 30132 ft | 484 kts | 47° |
| 2026-04-30 20:16 | 40.43225 | 4.26156 | 30431 ft | 486 kts | 47° |
| 2026-04-30 20:16 | 40.45416 | 4.29544 | 30759 ft | 488 kts | 47° |
| 2026-04-30 20:17 | 40.47676 | 4.32876 | 31055 ft | 488 kts | 40° |
| 2026-04-30 20:17 | 40.50314 | 4.35632 | 31396 ft | 483 kts | 28° |
| 2026-04-30 20:17 | 40.53281 | 4.37616 | 31781 ft | 475 kts | 16° |
| 2026-04-30 20:17 | 40.56439 | 4.38775 | 32174 ft | 468 kts | 6° |
| 2026-04-30 20:18 | 40.59640 | 4.39426 | 32570 ft | 465 kts | 3° |
| 2026-04-30 20:18 | 40.62858 | 4.39990 | 32962 ft | 465 kts | 3° |
| 2026-04-30 20:18 | 40.66062 | 4.40608 | 33346 ft | 465 kts | 4° |
| 2026-04-30 20:18 | 40.69252 | 4.41292 | 33731 ft | 465 kts | 5° |
| 2026-04-30 20:19 | 40.72440 | 4.42025 | 34092 ft | 464 kts | 5° |
| 2026-04-30 20:19 | 40.75626 | 4.42782 | 34409 ft | 464 kts | 6° |
| 2026-04-30 20:19 | 40.78797 | 4.43546 | 34738 ft | 463 kts | 6° |
| 2026-04-30 20:19 | 40.81960 | 4.44310 | 35053 ft | 462 kts | 6° |
| 2026-04-30 20:20 | 40.85108 | 4.45071 | 35433 ft | 459 kts | 6° |
| 2026-04-30 20:20 | 40.88250 | 4.45830 | 35759 ft | 458 kts | 6° |
| 2026-04-30 20:20 | 40.91374 | 4.46584 | 36032 ft | 457 kts | 5° |
| 2026-04-30 20:20 | 40.94462 | 4.47330 | 36312 ft | 456 kts | 5° |
| 2026-04-30 20:21 | 40.97583 | 4.48084 | 36571 ft | 456 kts | 5° |
| 2026-04-30 20:21 | 41.00698 | 4.48837 | 36839 ft | 455 kts | 5° |
| 2026-04-30 20:21 | 41.03809 | 4.49591 | 37096 ft | 454 kts | 5° |
| 2026-04-30 20:21 | 41.06920 | 4.50345 | 37408 ft | 452 kts | 5° |
| 2026-04-30 20:22 | 41.10012 | 4.51097 | 37647 ft | 451 kts | 5° |
| 2026-04-30 20:22 | 41.13097 | 4.51848 | 37870 ft | 451 kts | 5° |
| 2026-04-30 20:22 | 41.16183 | 4.52600 | 38069 ft | 451 kts | 5° |
| 2026-04-30 20:23 | 41.22347 | 4.54105 | 38121 ft | 449 kts | 5° |
| 2026-04-30 20:23 | 41.28486 | 4.55607 | 38123 ft | 449 kts | 5° |
| 2026-04-30 20:24 | 41.34628 | 4.57112 | 38125 ft | 448 kts | 5° |
| 2026-04-30 20:24 | 41.40748 | 4.58618 | 38127 ft | 446 kts | 5° |
| 2026-04-30 20:25 | 41.49886 | 4.60864 | 38140 ft | 447 kts | 5° |
| 2026-04-30 20:26 | 41.70615 | 4.66232 | 38164 ft | 450 kts | 11° |
| 2026-04-30 20:26 | 41.79153 | 4.71362 | 38139 ft | 461 kts | 26° |
| 2026-04-30 20:27 | 41.90172 | 4.80199 | 38154 ft | 461 kts | 25° |
| 2026-04-30 20:28 | 42.01138 | 4.89049 | 38152 ft | 461 kts | 25° |
| 2026-04-30 20:30 | 42.14872 | 5.00194 | 38161 ft | 461 kts | 25° |
| 2026-04-30 20:31 | 42.31340 | 5.13631 | 38171 ft | 461 kts | 25° |
| 2026-04-30 20:32 | 42.44999 | 5.24840 | 38169 ft | 460 kts | 25° |
| 2026-04-30 20:33 | 42.53195 | 5.31593 | 38177 ft | 459 kts | 25° |
| 2026-04-30 20:34 | 42.61381 | 5.38361 | 38181 ft | 459 kts | 25° |
| 2026-04-30 20:35 | 42.69511 | 5.45101 | 38178 ft | 458 kts | 25° |
| 2026-04-30 20:35 | 42.77672 | 5.51888 | 38161 ft | 458 kts | 25° |
| 2026-04-30 20:36 | 42.83102 | 5.56416 | 38166 ft | 457 kts | 25° |
| 2026-04-30 20:37 | 42.91258 | 5.63233 | 38184 ft | 457 kts | 25° |
| 2026-04-30 20:37 | 42.96680 | 5.67778 | 38179 ft | 457 kts | 26° |
| 2026-04-30 20:38 | 43.02065 | 5.72301 | 38187 ft | 457 kts | 26° |
| 2026-04-30 20:38 | 43.07520 | 5.76893 | 38190 ft | 457 kts | 26° |
| 2026-04-30 20:39 | 43.15604 | 5.83713 | 38190 ft | 457 kts | 26° |
| 2026-04-30 20:40 | 43.23710 | 5.90576 | 38192 ft | 457 kts | 26° |
| 2026-04-30 20:40 | 43.29123 | 5.95170 | 38201 ft | 456 kts | 26° |
| 2026-04-30 20:41 | 43.37303 | 6.01749 | 38199 ft | 449 kts | 18° |
| 2026-04-30 20:41 | 43.43183 | 6.04209 | 38192 ft | 438 kts | 4° |
| 2026-04-30 20:42 | 43.49198 | 6.04996 | 38188 ft | 433 kts | 359° |
| 2026-04-30 20:43 | 43.58217 | 6.05920 | 38189 ft | 433 kts | 359° |
| 2026-04-30 20:43 | 43.64235 | 6.06531 | 38193 ft | 434 kts | 359° |
| 2026-04-30 20:44 | 43.73235 | 6.07560 | 38199 ft | 436 kts | 4° |
| 2026-04-30 20:44 | 43.79162 | 6.09603 | 38207 ft | 443 kts | 15° |
| 2026-04-30 20:45 | 43.84823 | 6.13099 | 38207 ft | 447 kts | 22° |
| 2026-04-30 20:45 | 43.90418 | 6.16886 | 38229 ft | 446 kts | 22° |
| 2026-04-30 20:46 | 44.01537 | 6.24468 | 38219 ft | 446 kts | 22° |
| 2026-04-30 20:47 | 44.09848 | 6.30172 | 38218 ft | 443 kts | 23° |
| 2026-04-30 20:48 | 44.18149 | 6.35888 | 38218 ft | 443 kts | 23° |
| 2026-04-30 20:48 | 44.23672 | 6.39702 | 38224 ft | 443 kts | 23° |
| 2026-04-30 20:49 | 44.29199 | 6.43522 | 38225 ft | 443 kts | 23° |
| 2026-04-30 20:50 | 44.37476 | 6.49262 | 38227 ft | 442 kts | 23° |
| 2026-04-30 20:50 | 44.42991 | 6.53096 | 38242 ft | 442 kts | 23° |
| 2026-04-30 20:51 | 44.48500 | 6.56933 | 38229 ft | 442 kts | 24° |
| 2026-04-30 20:51 | 44.56721 | 6.62676 | 38240 ft | 442 kts | 24° |
| 2026-04-30 20:52 | 44.62229 | 6.66535 | 38246 ft | 442 kts | 24° |
| 2026-04-30 20:53 | 44.69600 | 6.71712 | 38267 ft | 443 kts | 24° |
| 2026-04-30 20:53 | 44.75094 | 6.75562 | 38263 ft | 443 kts | 21° |
| 2026-04-30 20:54 | 44.80915 | 6.78123 | 38276 ft | 437 kts | 7° |
| 2026-04-30 20:54 | 44.83931 | 6.78610 | 38278 ft | 435 kts | 0° |
| 2026-04-30 20:55 | 44.92982 | 6.78178 | 38280 ft | 433 kts | 355° |
| 2026-04-30 20:55 | 44.99006 | 6.77795 | 38278 ft | 433 kts | 355° |
| 2026-04-30 20:56 | 45.07985 | 6.77202 | 38291 ft | 432 kts | 355° |
| 2026-04-30 20:57 | 45.17045 | 6.76600 | 38271 ft | 433 kts | 355° |
| 2026-04-30 20:57 | 45.23032 | 6.76200 | 38263 ft | 434 kts | 356° |
| 2026-04-30 20:58 | 45.32096 | 6.75596 | 38265 ft | 435 kts | 356° |
| 2026-04-30 20:58 | 45.38146 | 6.75191 | 38272 ft | 436 kts | 356° |
| 2026-04-30 20:59 | 45.47211 | 6.74584 | 38255 ft | 434 kts | 356° |
| 2026-04-30 21:00 | 45.59237 | 6.73762 | 38258 ft | 433 kts | 356° |
| 2026-04-30 21:01 | 45.68219 | 6.73146 | 38238 ft | 433 kts | 356° |
| 2026-04-30 21:02 | 45.76840 | 6.72677 | 38250 ft | 434 kts | 2° |
| 2026-04-30 21:02 | 45.82764 | 6.73984 | 38236 ft | 432 kts | 15° |
| 2026-04-30 21:03 | 45.88363 | 6.77115 | 38239 ft | 434 kts | 24° |
| 2026-04-30 21:03 | 45.93812 | 6.80660 | 38236 ft | 434 kts | 23° |
| 2026-04-30 21:04 | 45.99296 | 6.84232 | 38233 ft | 429 kts | 24° |
| 2026-04-30 21:04 | 46.07445 | 6.89577 | 38221 ft | 430 kts | 24° |
| 2026-04-30 21:05 | 46.12853 | 6.93136 | 38216 ft | 429 kts | 24° |
| 2026-04-30 21:05 | 46.18281 | 6.96715 | 38213 ft | 426 kts | 24° |
| 2026-04-30 21:06 | 46.23672 | 7.00279 | 38207 ft | 426 kts | 24° |
| 2026-04-30 21:06 | 46.29059 | 7.03846 | 38210 ft | 426 kts | 24° |
| 2026-04-30 21:07 | 46.34431 | 7.07412 | 38207 ft | 427 kts | 24° |
| 2026-04-30 21:07 | 46.39841 | 7.11011 | 38210 ft | 427 kts | 24° |
| 2026-04-30 21:08 | 46.45241 | 7.14610 | 38198 ft | 427 kts | 24° |
| 2026-04-30 21:08 | 46.50637 | 7.18215 | 38207 ft | 427 kts | 24° |
| 2026-04-30 21:09 | 46.55977 | 7.21984 | 38214 ft | 427 kts | 29° |
| 2026-04-30 21:09 | 46.60856 | 7.26833 | 38205 ft | 428 kts | 38° |
| 2026-04-30 21:10 | 46.65364 | 7.32486 | 38204 ft | 428 kts | 39° |
| 2026-04-30 21:10 | 46.69722 | 7.37948 | 38225 ft | 427 kts | 39° |
| 2026-04-30 21:11 | 46.74226 | 7.43630 | 38234 ft | 427 kts | 39° |
| 2026-04-30 21:11 | 46.76392 | 7.46373 | 38070 ft | 429 kts | 40° |
| 2026-04-30 21:11 | 46.78554 | 7.49371 | 37798 ft | 428 kts | 46° |
| 2026-04-30 21:12 | 46.80478 | 7.52681 | 37509 ft | 427 kts | 50° |
| 2026-04-30 21:12 | 46.82318 | 7.56086 | 37248 ft | 426 kts | 50° |
| 2026-04-30 21:12 | 46.84170 | 7.59475 | 36674 ft | 428 kts | 50° |
| 2026-04-30 21:12 | 46.86033 | 7.62881 | 35958 ft | 430 kts | 50° |
| 2026-04-30 21:13 | 46.87904 | 7.66307 | 35156 ft | 432 kts | 50° |
| 2026-04-30 21:13 | 46.89771 | 7.69736 | 34465 ft | 431 kts | 51° |
| 2026-04-30 21:13 | 46.91629 | 7.73155 | 33668 ft | 430 kts | 51° |
| 2026-04-30 21:13 | 46.93490 | 7.76588 | 32905 ft | 428 kts | 51° |
| 2026-04-30 21:14 | 46.95338 | 7.80001 | 32129 ft | 427 kts | 51° |
| 2026-04-30 21:14 | 46.97157 | 7.83364 | 31405 ft | 426 kts | 52° |
| 2026-04-30 21:14 | 46.98981 | 7.86740 | 30904 ft | 420 kts | 52° |
| 2026-04-30 21:14 | 47.00781 | 7.90077 | 30351 ft | 415 kts | 52° |
| 2026-04-30 21:15 | 47.02560 | 7.93381 | 29750 ft | 410 kts | 52° |
| 2026-04-30 21:15 | 47.04310 | 7.96633 | 29207 ft | 404 kts | 52° |
| 2026-04-30 21:15 | 47.06043 | 7.99856 | 28678 ft | 398 kts | 51° |
| 2026-04-30 21:15 | 47.07865 | 8.02862 | 28149 ft | 393 kts | 45° |
| 2026-04-30 21:16 | 47.09841 | 8.05621 | 27624 ft | 389 kts | 44° |
| 2026-04-30 21:16 | 47.11792 | 8.08346 | 27097 ft | 384 kts | 44° |
| 2026-04-30 21:16 | 47.13712 | 8.11043 | 26581 ft | 380 kts | 44° |
| 2026-04-30 21:16 | 47.15612 | 8.13718 | 26054 ft | 377 kts | 44° |
| 2026-04-30 21:17 | 47.17496 | 8.16372 | 25552 ft | 373 kts | 44° |
| 2026-04-30 21:17 | 47.19483 | 8.18794 | 25054 ft | 371 kts | 33° |
| 2026-04-30 21:17 | 47.21798 | 8.20441 | 24540 ft | 370 kts | 20° |
| 2026-04-30 21:17 | 47.24298 | 8.21199 | 23986 ft | 373 kts | 6° |
| 2026-04-30 21:18 | 47.26885 | 8.21017 | 23473 ft | 373 kts | 352° |
| 2026-04-30 21:18 | 47.29393 | 8.19888 | 22943 ft | 374 kts | 338° |
| 2026-04-30 21:18 | 47.31687 | 8.18187 | 22420 ft | 372 kts | 336° |
| 2026-04-30 21:18 | 47.33968 | 8.16477 | 21913 ft | 382 kts | 336° |
| 2026-04-30 21:19 | 47.36411 | 8.14657 | 21361 ft | 403 kts | 336° |
| 2026-04-30 21:19 | 47.38937 | 8.12772 | 20774 ft | 410 kts | 336° |
| 2026-04-30 21:19 | 47.41495 | 8.10857 | 20188 ft | 411 kts | 336° |
| 2026-04-30 21:19 | 47.44030 | 8.08954 | 19601 ft | 408 kts | 336° |
| 2026-04-30 21:20 | 47.46579 | 8.07320 | 19005 ft | 400 kts | 347° |
| 2026-04-30 21:20 | 47.49265 | 8.06731 | 18454 ft | 381 kts | 4° |
| 2026-04-30 21:20 | 47.51809 | 8.07321 | 17911 ft | 360 kts | 21° |
| 2026-04-30 21:20 | 47.53946 | 8.08998 | 17437 ft | 340 kts | 41° |
| 2026-04-30 21:21 | 47.55483 | 8.11481 | 16991 ft | 325 kts | 54° |
| 2026-04-30 21:21 | 47.56792 | 8.14097 | 16540 ft | 317 kts | 58° |
| 2026-04-30 21:21 | 47.58071 | 8.20724 | 16050 ft | 350 kts | 90° |
| 2026-04-30 21:22 | 47.57627 | 8.24232 | 15948 ft | 347 kts | 108° |
| 2026-04-30 21:22 | 47.52531 | 8.31184 | 14924 ft | 343 kts | 152° |
| 2026-04-30 21:23 | 47.50464 | 8.32592 | 14638 ft | 337 kts | 150° |
| 2026-04-30 21:23 | 47.48299 | 8.34086 | 14032 ft | 340 kts | 152° |
| 2026-04-30 21:23 | 47.44036 | 8.37043 | 12960 ft | 337 kts | 153° |
| 2026-04-30 21:24 | 47.41954 | 8.38485 | 12769 ft | 322 kts | 153° |
| 2026-04-30 21:24 | 47.39968 | 8.39856 | 12346 ft | 311 kts | 153° |
| 2026-04-30 21:24 | 47.38028 | 8.41199 | 11864 ft | 303 kts | 153° |
| 2026-04-30 21:24 | 47.36143 | 8.42499 | 11506 ft | 295 kts | 153° |
| 2026-04-30 21:25 | 47.32461 | 8.45041 | 10574 ft | 290 kts | 153° |
| 2026-04-30 21:25 | 47.30691 | 8.46263 | 10128 ft | 288 kts | 153° |
| 2026-04-30 21:25 | 47.28874 | 8.47514 | 9607 ft | 286 kts | 154° |
| 2026-04-30 21:26 | 47.25299 | 8.49979 | 8704 ft | 278 kts | 155° |
| 2026-04-30 21:26 | 47.23588 | 8.51156 | 8559 ft | 263 kts | 155° |
| 2026-04-30 21:27 | 47.20462 | 8.53301 | 8278 ft | 237 kts | 155° |
| 2026-04-30 21:27 | 47.19058 | 8.54591 | 7802 ft | 240 kts | 133° |
| 2026-04-30 21:27 | 47.18258 | 8.56752 | 7346 ft | 245 kts | 102° |
| 2026-04-30 21:28 | 47.18992 | 8.61480 | 6541 ft | 245 kts | 63° |
| 2026-04-30 21:28 | 47.19772 | 8.63646 | 6409 ft | 232 kts | 62° |
| 2026-04-30 21:28 | 47.21153 | 8.67563 | 6236 ft | 198 kts | 63° |
| 2026-04-30 21:29 | 47.22007 | 8.69009 | 6112 ft | 185 kts | 34° |
| 2026-04-30 21:29 | 47.25292 | 8.68847 | 5552 ft | 158 kts | 334° |
| 2026-04-30 21:30 | 47.27272 | 8.67477 | 4954 ft | 159 kts | 337° |
| 2026-04-30 21:31 | 47.30290 | 8.65454 | 4917 ft | 162 kts | 337° |
| 2026-04-30 21:31 | 47.32211 | 8.64141 | 4471 ft | 147 kts | 338° |
| 2026-04-30 21:32 | 47.33997 | 8.62917 | 4057 ft | 146 kts | 338° |
| 2026-04-30 21:32 | 47.34919 | 8.62286 | 3848 ft | 145 kts | 339° |
| 2026-04-30 21:32 | 47.35835 | 8.61658 | 3637 ft | 146 kts | 340° |
| 2026-04-30 21:32 | 47.36752 | 8.61029 | 3435 ft | 144 kts | 340° |
| 2026-04-30 21:33 | 47.37647 | 8.60416 | 3205 ft | 141 kts | 341° |
| 2026-04-30 21:33 | 47.39391 | 8.59208 | 2801 ft | 136 kts | 340° |
| 2026-04-30 21:33 | 47.40244 | 8.58627 | 2573 ft | 136 kts | 341° |
| 2026-04-30 21:34 | 47.41105 | 8.58046 | 2351 ft | 136 kts | 340° |
| 2026-04-30 21:34 | 47.42814 | 8.56878 | 1924 ft | 133 kts | 338° |
| 2026-04-30 21:34 | 47.43675 | 8.56279 | 1724 ft | 138 kts | 338° |
| 2026-04-30 21:35 | 47.44527 | 8.55687 | 1526 ft | 135 kts | 338° |
| 2026-04-30 21:35 | 47.45378 | 8.55101 | 1412 ft | 131 kts | 338° |
| 2026-04-30 21:35 | 47.46076 | 8.54638 | 1404 ft | 84 kts | 332° |
| 2026-04-30 21:35 | 47.46399 | 8.54412 | 1404 ft | 18 kts | 2° |
| 2026-04-30 21:36 | 47.46459 | 8.54504 | 1395 ft | 20 kts | 58° |
| 2026-04-30 21:36 | 47.46478 | 8.54610 | 1394 ft | 4 kts | 122° |
| 2026-04-30 21:37 | 47.46311 | 8.54740 | 1398 ft | 14 kts | 155° |
| 2026-04-30 21:37 | 47.46219 | 8.54802 | 1402 ft | 16 kts | 155° |
| 2026-04-30 21:37 | 47.46108 | 8.54878 | 1397 ft | 19 kts | 155° |
| 2026-04-30 21:37 | 47.45981 | 8.54967 | 1403 ft | 22 kts | 154° |
| 2026-04-30 21:38 | 47.45833 | 8.55074 | 1397 ft | 24 kts | 154° |
| 2026-04-30 21:38 | 47.45697 | 8.55166 | 1401 ft | 11 kts | 154° |
| 2026-04-30 21:38 | 47.45621 | 8.55219 | 1400 ft | 13 kts | 154° |
| 2026-04-30 21:38 | 47.45543 | 8.55300 | 1400 ft | 15 kts | 104° |
| 2026-04-30 21:39 | 47.45530 | 8.55464 | 1400 ft | 17 kts | 95° |
| 2026-04-30 21:39 | 47.45520 | 8.55613 | 1396 ft | 9 kts | 90° |
| 2026-04-30 21:39 | 47.45485 | 8.55640 | 1403 ft | 6 kts | 204° |
| 2026-04-30 21:39 | 47.45437 | 8.55635 | 1400 ft | 5 kts | 187° |
| 2026-04-30 21:40 | 47.45429 | 8.55634 | 1398 ft | 0 kts | 186° |